createdAt,value
2023-01-06T00:00:30.406Z,12.86
2023-01-06T00:05:49.522Z,12.86
2023-01-06T00:11:08.962Z,12.86
2023-01-06T00:16:28.158Z,12.86
2023-01-06T00:21:47.709Z,12.86
2023-01-06T00:27:07.263Z,12.86
2023-01-06T00:32:26.555Z,12.85
2023-01-06T00:37:46.155Z,12.86
2023-01-06T00:43:05.381Z,12.86
2023-01-06T00:48:24.546Z,12.86
2023-01-06T00:53:43.399Z,12.85
2023-01-06T00:59:02.781Z,12.85
2023-01-06T01:04:22.153Z,12.85
2023-01-06T01:09:41.892Z,12.85
2023-01-06T01:15:00.711Z,12.85
2023-01-06T01:20:19.717Z,12.85
2023-01-06T01:25:38.677Z,12.84
2023-01-06T01:30:57.691Z,12.85
2023-01-06T01:36:16.701Z,12.84
2023-01-06T01:41:36.469Z,12.84
2023-01-06T01:47:04.444Z,12.84
2023-01-06T01:52:14.720Z,12.84
2023-01-06T01:57:33.693Z,12.84
2023-01-06T02:02:52.671Z,12.84
2023-01-06T02:08:12.162Z,12.84
2023-01-06T02:13:31.814Z,12.84
2023-01-06T02:18:51.402Z,12.84
2023-01-06T02:24:10.619Z,12.83
2023-01-06T02:29:30.516Z,12.84
2023-01-06T02:34:48.273Z,12.84
2023-01-06T02:40:07.969Z,12.83
2023-01-06T02:45:36.565Z,12.84
2023-01-06T02:56:06.559Z,12.83
2023-01-06T03:01:25.958Z,12.83
2023-01-06T03:06:44.710Z,12.83
2023-01-06T03:12:04.125Z,12.83
2023-01-06T03:17:23.629Z,12.83
2023-01-06T03:22:43.206Z,12.82
2023-01-06T03:28:02.314Z,12.82
2023-01-06T03:33:21.810Z,12.83
2023-01-06T03:38:41.454Z,12.82
2023-01-06T03:44:00.927Z,12.82
2023-01-06T03:49:20.003Z,12.82
2023-01-06T03:54:38.957Z,12.82
2023-01-06T03:59:58.487Z,12.82
2023-01-06T04:05:17.539Z,12.82
2023-01-06T04:10:36.431Z,12.82
2023-01-06T04:15:55.327Z,12.82
2023-01-06T04:21:15.290Z,12.82
2023-01-06T04:26:34.952Z,12.82
2023-01-06T04:31:53.735Z,12.82
2023-01-06T04:37:12.576Z,12.81
2023-01-06T04:42:31.491Z,12.81
2023-01-06T04:47:50.582Z,12.81
2023-01-06T04:53:10.762Z,12.81
2023-01-06T04:58:28.971Z,12.81
2023-01-06T05:03:48.661Z,12.8
2023-01-06T05:09:07.376Z,12.8
2023-01-06T05:14:27.055Z,12.8
2023-01-06T05:19:46.226Z,12.8
2023-01-06T05:25:05.529Z,12.8
2023-01-06T05:30:25.254Z,12.8
2023-01-06T05:35:44.569Z,12.8
2023-01-06T05:41:04.201Z,12.8
2023-01-06T05:46:23.497Z,12.8
2023-01-06T05:51:42.887Z,12.8
2023-01-06T05:57:01.698Z,12.8
2023-01-06T06:02:20.687Z,12.8
2023-01-06T06:07:39.455Z,12.79
2023-01-06T06:12:58.722Z,12.78
2023-01-06T06:18:18.241Z,12.79
2023-01-06T06:23:37.642Z,12.78
2023-01-06T06:28:57.120Z,12.79
2023-01-06T06:34:16.527Z,12.78
2023-01-06T06:39:35.654Z,12.78
2023-01-06T06:44:54.940Z,12.78
2023-01-06T06:50:14.118Z,12.78
2023-01-06T06:55:33.770Z,12.78
2023-01-06T07:00:52.776Z,12.78
2023-01-06T07:06:12.231Z,12.78
2023-01-06T07:11:31.124Z,12.78
2023-01-06T07:16:51.470Z,12.78
2023-01-06T07:22:10.073Z,12.78
2023-01-06T07:27:28.801Z,12.77
2023-01-06T07:38:08.171Z,12.77
2023-01-06T07:43:27.290Z,12.77
2023-01-06T07:48:46.647Z,12.77
2023-01-06T07:54:05.506Z,12.77
2023-01-06T07:59:24.221Z,12.78
2023-01-06T08:04:43.803Z,12.77
2023-01-06T08:10:03.424Z,12.78
2023-01-06T08:20:42.229Z,12.81
2023-01-06T08:26:01.041Z,12.84
2023-01-06T08:31:20.575Z,12.88
2023-01-06T08:36:39.787Z,12.91
2023-01-06T08:41:59.074Z,12.89
2023-01-06T08:47:18.440Z,12.94
2023-01-06T08:52:37.742Z,12.97
2023-01-06T08:57:56.857Z,12.9
2023-01-06T09:03:17.061Z,12.88
2023-01-06T09:08:36.171Z,12.92
2023-01-06T09:13:54.549Z,12.96
2023-01-06T09:19:14.081Z,13.07
2023-01-06T09:24:33.243Z,13.08
2023-01-06T09:29:52.351Z,13.18
2023-01-06T09:35:11.452Z,13.13
2023-01-06T09:45:50.043Z,13.03
2023-01-06T09:51:09.411Z,13.1
2023-01-06T09:56:28.644Z,13.18
2023-01-06T10:01:47.722Z,13.21
2023-01-06T10:07:07.273Z,13.21
2023-01-06T10:12:26.781Z,13.14
2023-01-06T10:17:46.098Z,13.06
2023-01-06T10:23:05.428Z,13.01
2023-01-06T10:28:24.156Z,13.01
2023-01-06T10:39:02.387Z,13.12
2023-01-06T10:44:22.095Z,13.16
2023-01-06T10:55:00.349Z,13.13
2023-01-06T11:00:19.933Z,13.15
2023-01-06T11:05:38.806Z,13.14
2023-01-06T11:10:58.171Z,13.09
2023-01-06T11:16:17.811Z,13.05
2023-01-06T11:21:36.882Z,13.04
2023-01-06T11:26:55.807Z,13.06
2023-01-06T11:27:20.829Z,13.03
2023-01-06T11:32:40.324Z,13.08
2023-01-06T11:37:59.558Z,13.09
2023-01-06T11:43:18.862Z,13.09
2023-01-06T11:53:57.151Z,13.11
2023-01-06T11:59:16.239Z,13.1
2023-01-06T12:04:35.103Z,13.08
2023-01-06T12:09:54.877Z,13.05
2023-01-06T12:15:14.014Z,13.02
2023-01-06T12:20:33.585Z,13.02
2023-01-06T12:25:52.488Z,13.03
2023-01-06T12:31:11.670Z,13.05
2023-01-06T12:36:30.267Z,13.06
2023-01-06T12:41:49.867Z,13.06
2023-01-06T12:47:08.918Z,13.05
2023-01-06T12:52:28.236Z,13.04
2023-01-06T12:57:47.902Z,13
2023-01-06T13:03:07.586Z,12.98
2023-01-06T13:08:27.427Z,12.97
2023-01-06T13:13:47.096Z,12.97
2023-01-06T13:19:13.815Z,12.98
2023-01-06T13:24:24.024Z,13.06
2023-01-06T13:35:02.707Z,13.07
2023-01-06T13:40:21.557Z,13
2023-01-06T13:45:50.036Z,12.96
2023-01-06T13:50:59.835Z,12.93
2023-01-06T13:56:18.620Z,12.93
2023-01-06T14:01:38.277Z,12.91
2023-01-06T14:06:57.694Z,12.9
2023-01-06T14:12:16.802Z,12.88
2023-01-06T14:17:36.530Z,12.86
2023-01-06T14:22:55.862Z,12.86
2023-01-06T14:28:14.893Z,12.84
2023-01-06T14:33:34.547Z,12.82
2023-01-06T14:38:53.405Z,12.82
2023-01-06T14:44:12.556Z,12.81
2023-01-06T14:49:31.428Z,12.8
2023-01-06T14:54:50.626Z,12.8
2023-01-06T15:00:09.454Z,12.79
2023-01-06T15:05:29.094Z,12.78
2023-01-06T15:10:48.255Z,12.78
2023-01-06T15:16:07.595Z,12.78
2023-01-06T15:21:27.083Z,12.78
2023-01-06T15:26:46.330Z,12.77
2023-01-06T15:32:06.047Z,12.77
2023-01-06T15:37:25.239Z,12.76
2023-01-06T15:42:44.507Z,12.76
2023-01-06T15:48:03.531Z,12.76
2023-01-06T15:58:41.636Z,12.76
2023-01-06T16:04:01.204Z,12.75
2023-01-06T16:09:20.148Z,12.75
2023-01-06T16:14:39.909Z,12.75
2023-01-06T16:19:58.811Z,12.74
2023-01-06T16:25:17.579Z,12.74
2023-01-06T16:30:36.670Z,12.74
2023-01-06T16:35:55.278Z,12.74
2023-01-06T16:41:14.729Z,12.74
2023-01-06T16:46:33.896Z,12.74
2023-01-06T16:51:53.685Z,12.73
2023-01-06T16:57:13.326Z,12.74
2023-01-06T17:02:31.436Z,12.74
2023-01-06T17:07:50.558Z,12.74
2023-01-06T17:13:10.005Z,12.73
2023-01-06T17:18:28.941Z,12.73
2023-01-06T17:23:47.895Z,12.74
2023-01-06T17:34:26.734Z,12.72
2023-01-06T17:39:45.999Z,12.73
2023-01-06T17:45:05.388Z,12.72
2023-01-06T17:50:24.237Z,12.72
2023-01-06T17:55:43.743Z,12.72
2023-01-06T18:01:03.367Z,12.72
2023-01-06T18:06:22.190Z,12.72
2023-01-06T18:11:41.094Z,12.72
2023-01-06T18:16:59.984Z,12.72
2023-01-06T18:22:19.046Z,12.72
2023-01-06T18:32:57.424Z,12.72
2023-01-06T18:38:16.811Z,12.71
2023-01-06T18:43:36.002Z,12.71
2023-01-06T18:48:55.192Z,12.71
2023-01-06T18:54:14.269Z,12.71
2023-01-06T18:59:32.989Z,12.71
2023-01-06T19:04:52.327Z,12.71
2023-01-06T19:15:29.975Z,12.71
2023-01-06T19:20:49.192Z,12.71
2023-01-06T19:26:08.728Z,12.71
2023-01-06T19:31:28.605Z,12.71
2023-01-06T19:36:47.648Z,12.71
2023-01-06T19:42:06.488Z,12.71
2023-01-06T19:47:25.784Z,12.71
2023-01-06T19:52:45.032Z,12.71
2023-01-06T19:58:03.923Z,12.7
2023-01-06T20:03:23.457Z,12.7
2023-01-06T20:14:01.497Z,12.7
2023-01-06T20:19:20.925Z,12.7
2023-01-06T20:24:40.611Z,12.7
2023-01-06T20:29:59.507Z,12.7
2023-01-06T20:40:36.988Z,12.7
2023-01-06T20:45:55.934Z,12.7
2023-01-06T20:51:15.035Z,12.7
2023-01-06T20:56:34.475Z,12.7
2023-01-06T21:01:53.685Z,12.69
2023-01-06T21:07:13.025Z,12.7
2023-01-06T21:12:33.474Z,12.69
2023-01-06T21:23:11.049Z,12.69
2023-01-06T21:28:30.425Z,12.69
2023-01-06T21:33:50.162Z,12.69
2023-01-06T21:39:09.130Z,12.69
2023-01-06T21:44:27.928Z,12.69
2023-01-06T21:49:47.281Z,12.69
2023-01-06T21:55:06.692Z,12.7
2023-01-06T22:00:26.299Z,12.69
2023-01-06T22:05:45.764Z,12.69
2023-01-06T22:11:05.384Z,12.69
2023-01-06T22:16:24.856Z,12.69
2023-01-06T22:21:44.360Z,12.68
2023-01-06T22:27:03.819Z,12.69
2023-01-06T22:32:22.745Z,12.69
2023-01-06T22:37:42.030Z,12.69
2023-01-06T22:48:20.794Z,12.68
2023-01-06T22:53:40.106Z,12.68
2023-01-06T22:58:59.373Z,12.68
2023-01-06T23:04:18.585Z,12.68
2023-01-06T23:09:37.521Z,12.68
2023-01-06T23:14:57.189Z,12.68
2023-01-06T23:20:16.482Z,12.68
2023-01-06T23:25:35.428Z,12.69
2023-01-06T23:30:54.259Z,12.68
2023-01-06T23:36:13.809Z,12.68
2023-01-06T23:41:32.944Z,12.68
2023-01-06T23:46:52.098Z,12.68
2023-01-06T23:52:12.107Z,12.68
2023-01-06T23:57:31.573Z,12.68
